sensor_id;sensor_type;location;lat;lon;timestamp;P1;durP1;ratioP1;P2;durP2;ratioP2
28166;SDS011;15455;53.376;-6.262;2023-06-10T00:02:21;12.15;;;6.22;;
28166;SDS011;15455;53.376;-6.262;2023-06-10T00:05:07;13.70;;;6.82;;
28166;SDS011;15455;53.376;-6.262;2023-06-10T00:07:56;17.05;;;7.25;;
28166;SDS011;15455;53.376;-6.262;2023-06-10T00:10:42;9.52;;;6.25;;
28166;SDS011;15455;53.376;-6.262;2023-06-10T00:13:27;12.77;;;7.10;;
28166;SDS011;15455;53.376;-6.262;2023-06-10T00:16:12;14.15;;;6.28;;
28166;SDS011;15455;53.376;-6.262;2023-06-10T00:18:59;10.85;;;5.15;;
28166;SDS011;15455;53.376;-6.262;2023-06-10T00:21:49;8.38;;;5.82;;
28166;SDS011;15455;53.376;-6.262;2023-06-10T00:24:36;15.68;;;7.00;;
28166;SDS011;15455;53.376;-6.262;2023-06-10T00:27:22;17.00;;;6.60;;
28166;SDS011;15455;53.376;-6.262;2023-06-10T00:30:08;9.52;;;6.03;;
28166;SDS011;15455;53.376;-6.262;2023-06-10T00:32:54;12.35;;;5.53;;
28166;SDS011;15455;53.376;-6.262;2023-06-10T00:35:40;15.93;;;6.53;;
28166;SDS011;15455;53.376;-6.262;2023-06-10T00:38:25;12.02;;;6.90;;
28166;SDS011;15455;53.376;-6.262;2023-06-10T00:41:11;12.00;;;6.43;;
28166;SDS011;15455;53.376;-6.262;2023-06-10T00:43:56;12.13;;;6.68;;
28166;SDS011;15455;53.376;-6.262;2023-06-10T00:46:42;18.17;;;7.78;;
28166;SDS011;15455;53.376;-6.262;2023-06-10T00:49:28;14.45;;;6.45;;
28166;SDS011;15455;53.376;-6.262;2023-06-10T00:52:13;11.98;;;6.35;;
28166;SDS011;15455;53.376;-6.262;2023-06-10T00:55:01;10.63;;;5.38;;
28166;SDS011;15455;53.376;-6.262;2023-06-10T00:57:47;11.38;;;6.18;;
28166;SDS011;15455;53.376;-6.262;2023-06-10T01:00:36;13.63;;;6.22;;
28166;SDS011;15455;53.376;-6.262;2023-06-10T01:03:22;10.60;;;6.45;;
28166;SDS011;15455;53.376;-6.262;2023-06-10T01:15:23;17.40;;;7.65;;
28166;SDS011;15455;53.376;-6.262;2023-06-10T01:18:09;13.85;;;7.68;;
28166;SDS011;15455;53.376;-6.262;2023-06-10T01:21:00;19.05;;;8.32;;
28166;SDS011;15455;53.376;-6.262;2023-06-10T01:23:45;16.73;;;7.95;;
28166;SDS011;15455;53.376;-6.262;2023-06-10T01:26:32;19.90;;;7.90;;
28166;SDS011;15455;53.376;-6.262;2023-06-10T01:29:31;17.92;;;7.85;;
28166;SDS011;15455;53.376;-6.262;2023-06-10T01:32:35;20.48;;;9.20;;
28166;SDS011;15455;53.376;-6.262;2023-06-10T01:35:26;25.77;;;9.02;;
28166;SDS011;15455;53.376;-6.262;2023-06-10T01:38:14;19.15;;;8.25;;
28166;SDS011;15455;53.376;-6.262;2023-06-10T01:41:02;16.17;;;8.27;;
28166;SDS011;15455;53.376;-6.262;2023-06-10T01:43:51;19.63;;;8.27;;
28166;SDS011;15455;53.376;-6.262;2023-06-10T01:46:36;28.75;;;9.65;;
28166;SDS011;15455;53.376;-6.262;2023-06-10T01:49:22;19.48;;;8.77;;
28166;SDS011;15455;53.376;-6.262;2023-06-10T01:52:09;18.00;;;9.75;;
28166;SDS011;15455;53.376;-6.262;2023-06-10T01:54:55;25.25;;;10.40;;
28166;SDS011;15455;53.376;-6.262;2023-06-10T01:57:40;17.95;;;9.30;;
28166;SDS011;15455;53.376;-6.262;2023-06-10T02:00:26;16.85;;;8.65;;
28166;SDS011;15455;53.376;-6.262;2023-06-10T02:03:12;17.58;;;8.50;;
28166;SDS011;15455;53.376;-6.262;2023-06-10T02:05:57;17.00;;;8.40;;
28166;SDS011;15455;53.376;-6.262;2023-06-10T02:08:43;23.98;;;8.85;;
28166;SDS011;15455;53.376;-6.262;2023-06-10T02:11:29;17.77;;;9.85;;
28166;SDS011;15455;53.376;-6.262;2023-06-10T02:14:15;28.20;;;9.75;;
28166;SDS011;15455;53.376;-6.262;2023-06-10T02:17:00;23.17;;;10.27;;
28166;SDS011;15455;53.376;-6.262;2023-06-10T02:19:46;15.43;;;8.10;;
28166;SDS011;15455;53.376;-6.262;2023-06-10T02:22:39;19.67;;;9.73;;
28166;SDS011;15455;53.376;-6.262;2023-06-10T02:25:25;16.75;;;9.60;;
28166;SDS011;15455;53.376;-6.262;2023-06-10T02:28:11;19.20;;;8.75;;
28166;SDS011;15455;53.376;-6.262;2023-06-10T02:30:56;29.08;;;10.68;;
28166;SDS011;15455;53.376;-6.262;2023-06-10T02:33:43;18.75;;;9.57;;
28166;SDS011;15455;53.376;-6.262;2023-06-10T02:36:30;15.55;;;9.57;;
28166;SDS011;15455;53.376;-6.262;2023-06-10T02:39:15;20.88;;;9.80;;
28166;SDS011;15455;53.376;-6.262;2023-06-10T02:42:02;15.32;;;9.32;;
28166;SDS011;15455;53.376;-6.262;2023-06-10T02:44:48;23.33;;;9.90;;
28166;SDS011;15455;53.376;-6.262;2023-06-10T02:47:42;24.85;;;9.38;;
28166;SDS011;15455;53.376;-6.262;2023-06-10T02:50:29;18.65;;;9.30;;
28166;SDS011;15455;53.376;-6.262;2023-06-10T02:53:38;21.10;;;9.20;;
28166;SDS011;15455;53.376;-6.262;2023-06-10T02:56:27;22.20;;;9.95;;
28166;SDS011;15455;53.376;-6.262;2023-06-10T02:59:15;28.00;;;9.57;;
28166;SDS011;15455;53.376;-6.262;2023-06-10T03:02:01;19.30;;;9.15;;
28166;SDS011;15455;53.376;-6.262;2023-06-10T03:04:50;18.73;;;8.57;;
28166;SDS011;15455;53.376;-6.262;2023-06-10T03:07:38;21.48;;;8.30;;
28166;SDS011;15455;53.376;-6.262;2023-06-10T03:10:24;21.40;;;8.55;;
28166;SDS011;15455;53.376;-6.262;2023-06-10T03:13:09;22.33;;;9.32;;
28166;SDS011;15455;53.376;-6.262;2023-06-10T03:15:56;15.80;;;9.10;;
28166;SDS011;15455;53.376;-6.262;2023-06-10T03:18:43;15.38;;;7.70;;
28166;SDS011;15455;53.376;-6.262;2023-06-10T03:21:29;19.95;;;9.23;;
28166;SDS011;15455;53.376;-6.262;2023-06-10T03:24:16;23.65;;;9.52;;
28166;SDS011;15455;53.376;-6.262;2023-06-10T03:27:03;20.60;;;8.52;;
28166;SDS011;15455;53.376;-6.262;2023-06-10T03:29:50;14.38;;;7.85;;
28166;SDS011;15455;53.376;-6.262;2023-06-10T03:32:36;15.32;;;8.10;;
28166;SDS011;15455;53.376;-6.262;2023-06-10T03:35:24;22.42;;;8.07;;
28166;SDS011;15455;53.376;-6.262;2023-06-10T03:38:10;13.60;;;7.97;;
28166;SDS011;15455;53.376;-6.262;2023-06-10T03:40:56;26.05;;;8.60;;
28166;SDS011;15455;53.376;-6.262;2023-06-10T03:43:41;24.38;;;9.43;;
28166;SDS011;15455;53.376;-6.262;2023-06-10T03:46:27;17.50;;;7.97;;
28166;SDS011;15455;53.376;-6.262;2023-06-10T03:49:14;26.25;;;7.97;;
28166;SDS011;15455;53.376;-6.262;2023-06-10T03:52:00;22.17;;;8.13;;
28166;SDS011;15455;53.376;-6.262;2023-06-10T03:54:47;25.50;;;8.25;;
28166;SDS011;15455;53.376;-6.262;2023-06-10T03:57:32;19.52;;;7.70;;
28166;SDS011;15455;53.376;-6.262;2023-06-10T04:00:18;16.17;;;7.72;;
28166;SDS011;15455;53.376;-6.262;2023-06-10T04:03:07;20.02;;;8.52;;
28166;SDS011;15455;53.376;-6.262;2023-06-10T04:05:59;13.93;;;7.15;;
28166;SDS011;15455;53.376;-6.262;2023-06-10T04:08:45;19.02;;;7.47;;
28166;SDS011;15455;53.376;-6.262;2023-06-10T04:11:30;19.23;;;7.50;;
28166;SDS011;15455;53.376;-6.262;2023-06-10T04:14:17;16.50;;;7.85;;
28166;SDS011;15455;53.376;-6.262;2023-06-10T04:17:04;18.80;;;8.02;;
28166;SDS011;15455;53.376;-6.262;2023-06-10T04:19:55;16.85;;;7.03;;
28166;SDS011;15455;53.376;-6.262;2023-06-10T04:22:41;16.90;;;8.02;;
28166;SDS011;15455;53.376;-6.262;2023-06-10T04:25:26;20.63;;;7.50;;
28166;SDS011;15455;53.376;-6.262;2023-06-10T04:28:13;18.48;;;6.60;;
28166;SDS011;15455;53.376;-6.262;2023-06-10T04:31:00;13.30;;;6.50;;
28166;SDS011;15455;53.376;-6.262;2023-06-10T04:33:47;16.88;;;6.82;;
28166;SDS011;15455;53.376;-6.262;2023-06-10T04:36:33;12.45;;;6.68;;
28166;SDS011;15455;53.376;-6.262;2023-06-10T04:39:18;14.80;;;6.95;;
28166;SDS011;15455;53.376;-6.262;2023-06-10T04:42:05;20.00;;;7.60;;
28166;SDS011;15455;53.376;-6.262;2023-06-10T04:44:51;22.05;;;7.32;;
28166;SDS011;15455;53.376;-6.262;2023-06-10T04:47:37;13.73;;;6.25;;
28166;SDS011;15455;53.376;-6.262;2023-06-10T04:50:23;13.32;;;7.18;;
28166;SDS011;15455;53.376;-6.262;2023-06-10T04:53:09;17.75;;;7.30;;
28166;SDS011;15455;53.376;-6.262;2023-06-10T04:55:57;10.98;;;6.53;;
28166;SDS011;15455;53.376;-6.262;2023-06-10T04:58:42;21.42;;;7.18;;
28166;SDS011;15455;53.376;-6.262;2023-06-10T05:01:28;20.67;;;6.82;;
28166;SDS011;15455;53.376;-6.262;2023-06-10T05:04:13;14.98;;;6.88;;
28166;SDS011;15455;53.376;-6.262;2023-06-10T05:06:59;14.40;;;6.60;;
28166;SDS011;15455;53.376;-6.262;2023-06-10T05:09:44;15.43;;;7.15;;
28166;SDS011;15455;53.376;-6.262;2023-06-10T05:12:30;21.63;;;7.22;;
28166;SDS011;15455;53.376;-6.262;2023-06-10T05:15:15;15.13;;;5.80;;
28166;SDS011;15455;53.376;-6.262;2023-06-10T05:18:01;16.70;;;6.25;;
28166;SDS011;15455;53.376;-6.262;2023-06-10T05:20:50;12.85;;;6.00;;
28166;SDS011;15455;53.376;-6.262;2023-06-10T05:23:36;21.50;;;6.10;;
28166;SDS011;15455;53.376;-6.262;2023-06-10T05:26:21;18.33;;;6.90;;
28166;SDS011;15455;53.376;-6.262;2023-06-10T05:29:07;13.20;;;5.57;;
28166;SDS011;15455;53.376;-6.262;2023-06-10T05:31:56;18.92;;;6.57;;
28166;SDS011;15455;53.376;-6.262;2023-06-10T05:34:42;20.33;;;6.72;;
28166;SDS011;15455;53.376;-6.262;2023-06-10T05:37:28;13.13;;;6.28;;
28166;SDS011;15455;53.376;-6.262;2023-06-10T05:40:13;14.38;;;5.85;;
28166;SDS011;15455;53.376;-6.262;2023-06-10T05:42:59;20.83;;;6.35;;
28166;SDS011;15455;53.376;-6.262;2023-06-10T05:45:45;18.85;;;6.07;;
28166;SDS011;15455;53.376;-6.262;2023-06-10T05:48:30;19.80;;;6.10;;
28166;SDS011;15455;53.376;-6.262;2023-06-10T05:51:15;19.42;;;6.30;;
28166;SDS011;15455;53.376;-6.262;2023-06-10T05:54:00;16.63;;;6.05;;
28166;SDS011;15455;53.376;-6.262;2023-06-10T05:56:46;18.92;;;6.97;;
28166;SDS011;15455;53.376;-6.262;2023-06-10T05:59:31;22.88;;;7.05;;
28166;SDS011;15455;53.376;-6.262;2023-06-10T06:02:17;15.40;;;6.25;;
28166;SDS011;15455;53.376;-6.262;2023-06-10T06:05:03;15.85;;;6.05;;
28166;SDS011;15455;53.376;-6.262;2023-06-10T06:07:48;23.50;;;6.85;;
28166;SDS011;15455;53.376;-6.262;2023-06-10T06:10:34;18.83;;;7.00;;
28166;SDS011;15455;53.376;-6.262;2023-06-10T06:13:19;20.20;;;6.35;;
28166;SDS011;15455;53.376;-6.262;2023-06-10T06:16:04;20.25;;;6.82;;
28166;SDS011;15455;53.376;-6.262;2023-06-10T06:18:50;19.70;;;6.50;;
28166;SDS011;15455;53.376;-6.262;2023-06-10T06:21:36;17.38;;;6.30;;
28166;SDS011;15455;53.376;-6.262;2023-06-10T06:24:21;15.88;;;6.82;;
28166;SDS011;15455;53.376;-6.262;2023-06-10T06:27:07;20.25;;;6.97;;
28166;SDS011;15455;53.376;-6.262;2023-06-10T06:29:52;15.50;;;6.40;;
28166;SDS011;15455;53.376;-6.262;2023-06-10T06:32:38;20.85;;;6.40;;
28166;SDS011;15455;53.376;-6.262;2023-06-10T06:35:23;24.58;;;7.70;;
28166;SDS011;15455;53.376;-6.262;2023-06-10T06:38:09;18.17;;;6.47;;
28166;SDS011;15455;53.376;-6.262;2023-06-10T06:40:55;14.18;;;6.15;;
28166;SDS011;15455;53.376;-6.262;2023-06-10T06:43:41;25.48;;;6.90;;
28166;SDS011;15455;53.376;-6.262;2023-06-10T06:46:40;17.23;;;6.47;;
28166;SDS011;15455;53.376;-6.262;2023-06-10T06:49:26;24.75;;;6.65;;
28166;SDS011;15455;53.376;-6.262;2023-06-10T06:52:12;17.73;;;6.60;;
28166;SDS011;15455;53.376;-6.262;2023-06-10T06:54:57;19.42;;;7.15;;
28166;SDS011;15455;53.376;-6.262;2023-06-10T06:57:43;13.98;;;6.90;;
28166;SDS011;15455;53.376;-6.262;2023-06-10T07:00:30;19.45;;;6.53;;
28166;SDS011;15455;53.376;-6.262;2023-06-10T07:03:15;17.42;;;6.88;;
28166;SDS011;15455;53.376;-6.262;2023-06-10T07:06:01;15.18;;;7.32;;
28166;SDS011;15455;53.376;-6.262;2023-06-10T07:08:48;16.48;;;6.75;;
28166;SDS011;15455;53.376;-6.262;2023-06-10T07:11:34;18.45;;;6.18;;
28166;SDS011;15455;53.376;-6.262;2023-06-10T07:14:20;20.92;;;6.43;;
28166;SDS011;15455;53.376;-6.262;2023-06-10T07:17:05;23.75;;;6.68;;
28166;SDS011;15455;53.376;-6.262;2023-06-10T07:19:50;21.98;;;6.63;;
28166;SDS011;15455;53.376;-6.262;2023-06-10T07:22:36;15.02;;;5.80;;
28166;SDS011;15455;53.376;-6.262;2023-06-10T07:25:24;18.52;;;6.50;;
28166;SDS011;15455;53.376;-6.262;2023-06-10T07:28:09;17.73;;;6.90;;
28166;SDS011;15455;53.376;-6.262;2023-06-10T07:30:55;20.58;;;5.90;;
28166;SDS011;15455;53.376;-6.262;2023-06-10T07:33:40;14.85;;;6.80;;
28166;SDS011;15455;53.376;-6.262;2023-06-10T07:36:27;16.67;;;6.93;;
28166;SDS011;15455;53.376;-6.262;2023-06-10T07:39:13;17.20;;;6.35;;
28166;SDS011;15455;53.376;-6.262;2023-06-10T07:41:58;20.10;;;6.30;;
28166;SDS011;15455;53.376;-6.262;2023-06-10T07:44:44;19.15;;;7.13;;
28166;SDS011;15455;53.376;-6.262;2023-06-10T07:47:29;12.63;;;6.47;;
28166;SDS011;15455;53.376;-6.262;2023-06-10T07:50:16;17.60;;;7.18;;
28166;SDS011;15455;53.376;-6.262;2023-06-10T07:53:01;18.00;;;7.05;;
28166;SDS011;15455;53.376;-6.262;2023-06-10T07:55:47;13.52;;;6.63;;
28166;SDS011;15455;53.376;-6.262;2023-06-10T07:58:33;15.70;;;6.30;;
28166;SDS011;15455;53.376;-6.262;2023-06-10T08:01:18;18.23;;;6.90;;
28166;SDS011;15455;53.376;-6.262;2023-06-10T08:04:04;18.48;;;6.55;;
28166;SDS011;15455;53.376;-6.262;2023-06-10T08:06:50;20.08;;;6.90;;
28166;SDS011;15455;53.376;-6.262;2023-06-10T08:09:36;18.73;;;6.38;;
28166;SDS011;15455;53.376;-6.262;2023-06-10T08:12:21;18.88;;;6.28;;
28166;SDS011;15455;53.376;-6.262;2023-06-10T08:15:07;18.08;;;6.95;;
28166;SDS011;15455;53.376;-6.262;2023-06-10T08:17:53;18.73;;;7.03;;
28166;SDS011;15455;53.376;-6.262;2023-06-10T08:20:38;18.58;;;6.30;;
28166;SDS011;15455;53.376;-6.262;2023-06-10T08:23:24;19.33;;;7.20;;
28166;SDS011;15455;53.376;-6.262;2023-06-10T08:26:09;23.98;;;6.72;;
28166;SDS011;15455;53.376;-6.262;2023-06-10T08:28:55;24.17;;;6.63;;
28166;SDS011;15455;53.376;-6.262;2023-06-10T08:31:41;17.45;;;6.47;;
28166;SDS011;15455;53.376;-6.262;2023-06-10T08:34:28;16.63;;;6.88;;
28166;SDS011;15455;53.376;-6.262;2023-06-10T08:37:13;15.40;;;7.00;;
28166;SDS011;15455;53.376;-6.262;2023-06-10T08:39:59;13.27;;;5.70;;
28166;SDS011;15455;53.376;-6.262;2023-06-10T08:45:49;19.80;;;7.25;;
28166;SDS011;15455;53.376;-6.262;2023-06-10T08:48:34;15.57;;;6.43;;
28166;SDS011;15455;53.376;-6.262;2023-06-10T08:51:24;21.25;;;7.65;;
28166;SDS011;15455;53.376;-6.262;2023-06-10T08:54:14;24.52;;;7.45;;
28166;SDS011;15455;53.376;-6.262;2023-06-10T08:57:05;21.27;;;7.03;;
28166;SDS011;15455;53.376;-6.262;2023-06-10T08:59:51;17.92;;;6.35;;
28166;SDS011;15455;53.376;-6.262;2023-06-10T09:02:39;24.80;;;6.55;;
28166;SDS011;15455;53.376;-6.262;2023-06-10T09:05:26;22.05;;;6.82;;
28166;SDS011;15455;53.376;-6.262;2023-06-10T09:08:13;22.00;;;6.47;;
28166;SDS011;15455;53.376;-6.262;2023-06-10T09:11:01;14.32;;;7.00;;
28166;SDS011;15455;53.376;-6.262;2023-06-10T09:13:46;20.23;;;6.40;;
28166;SDS011;15455;53.376;-6.262;2023-06-10T09:16:32;19.00;;;7.47;;
28166;SDS011;15455;53.376;-6.262;2023-06-10T09:19:18;24.55;;;7.88;;
28166;SDS011;15455;53.376;-6.262;2023-06-10T09:22:06;18.23;;;7.68;;
28166;SDS011;15455;53.376;-6.262;2023-06-10T09:24:52;20.98;;;7.82;;
28166;SDS011;15455;53.376;-6.262;2023-06-10T09:27:51;20.83;;;7.63;;
28166;SDS011;15455;53.376;-6.262;2023-06-10T09:30:41;19.50;;;7.68;;
28166;SDS011;15455;53.376;-6.262;2023-06-10T09:33:27;21.33;;;7.95;;
28166;SDS011;15455;53.376;-6.262;2023-06-10T09:36:21;16.15;;;6.72;;
28166;SDS011;15455;53.376;-6.262;2023-06-10T09:39:15;16.77;;;6.65;;
28166;SDS011;15455;53.376;-6.262;2023-06-10T09:42:15;20.38;;;6.90;;
28166;SDS011;15455;53.376;-6.262;2023-06-10T09:45:04;19.75;;;7.80;;
28166;SDS011;15455;53.376;-6.262;2023-06-10T09:47:51;19.08;;;6.88;;
28166;SDS011;15455;53.376;-6.262;2023-06-10T09:50:44;15.73;;;6.18;;
28166;SDS011;15455;53.376;-6.262;2023-06-10T09:53:33;19.27;;;7.05;;
28166;SDS011;15455;53.376;-6.262;2023-06-10T09:56:19;17.20;;;6.82;;
28166;SDS011;15455;53.376;-6.262;2023-06-10T09:59:05;22.15;;;7.95;;
28166;SDS011;15455;53.376;-6.262;2023-06-10T10:01:54;22.23;;;6.60;;
28166;SDS011;15455;53.376;-6.262;2023-06-10T10:04:40;19.48;;;7.65;;
28166;SDS011;15455;53.376;-6.262;2023-06-10T10:07:26;21.40;;;8.30;;
28166;SDS011;15455;53.376;-6.262;2023-06-10T10:10:12;24.25;;;8.00;;
28166;SDS011;15455;53.376;-6.262;2023-06-10T10:12:59;15.40;;;6.50;;
28166;SDS011;15455;53.376;-6.262;2023-06-10T10:15:45;14.32;;;7.03;;
28166;SDS011;15455;53.376;-6.262;2023-06-10T10:18:32;22.25;;;7.90;;
28166;SDS011;15455;53.376;-6.262;2023-06-10T10:21:22;13.77;;;6.85;;
28166;SDS011;15455;53.376;-6.262;2023-06-10T10:24:15;21.38;;;6.82;;
28166;SDS011;15455;53.376;-6.262;2023-06-10T10:27:05;16.63;;;7.33;;
28166;SDS011;15455;53.376;-6.262;2023-06-10T10:29:58;15.65;;;7.20;;
28166;SDS011;15455;53.376;-6.262;2023-06-10T10:36:04;18.02;;;7.65;;
28166;SDS011;15455;53.376;-6.262;2023-06-10T10:38:52;21.65;;;7.22;;
28166;SDS011;15455;53.376;-6.262;2023-06-10T10:41:39;24.15;;;7.13;;
28166;SDS011;15455;53.376;-6.262;2023-06-10T10:44:25;23.58;;;8.65;;
28166;SDS011;15455;53.376;-6.262;2023-06-10T10:47:11;18.38;;;6.57;;
28166;SDS011;15455;53.376;-6.262;2023-06-10T10:49:59;15.48;;;7.72;;
28166;SDS011;15455;53.376;-6.262;2023-06-10T10:55:38;17.05;;;7.13;;
28166;SDS011;15455;53.376;-6.262;2023-06-10T10:58:25;19.60;;;8.18;;
28166;SDS011;15455;53.376;-6.262;2023-06-10T11:01:11;15.13;;;7.00;;
28166;SDS011;15455;53.376;-6.262;2023-06-10T11:03:59;22.40;;;7.68;;
28166;SDS011;15455;53.376;-6.262;2023-06-10T11:06:55;18.92;;;8.48;;
28166;SDS011;15455;53.376;-6.262;2023-06-10T11:09:57;28.05;;;8.18;;
28166;SDS011;15455;53.376;-6.262;2023-06-10T11:12:51;16.98;;;7.68;;
28166;SDS011;15455;53.376;-6.262;2023-06-10T11:15:47;18.77;;;7.80;;
28166;SDS011;15455;53.376;-6.262;2023-06-10T11:18:34;17.13;;;7.22;;
28166;SDS011;15455;53.376;-6.262;2023-06-10T11:21:24;15.18;;;7.35;;
28166;SDS011;15455;53.376;-6.262;2023-06-10T11:24:13;21.67;;;8.50;;
28166;SDS011;15455;53.376;-6.262;2023-06-10T11:27:15;17.40;;;7.40;;
28166;SDS011;15455;53.376;-6.262;2023-06-10T11:32:51;17.42;;;6.80;;
28166;SDS011;15455;53.376;-6.262;2023-06-10T11:35:38;18.60;;;7.90;;
28166;SDS011;15455;53.376;-6.262;2023-06-10T11:38:24;23.58;;;8.63;;
28166;SDS011;15455;53.376;-6.262;2023-06-10T11:41:13;22.73;;;9.02;;
28166;SDS011;15455;53.376;-6.262;2023-06-10T11:44:09;21.98;;;9.52;;
28166;SDS011;15455;53.376;-6.262;2023-06-10T11:46:59;23.80;;;7.95;;
28166;SDS011;15455;53.376;-6.262;2023-06-10T11:49:44;28.25;;;8.82;;
28166;SDS011;15455;53.376;-6.262;2023-06-10T11:52:34;17.47;;;8.10;;
28166;SDS011;15455;53.376;-6.262;2023-06-10T11:55:26;17.65;;;8.32;;
28166;SDS011;15455;53.376;-6.262;2023-06-10T11:58:26;20.25;;;7.90;;
28166;SDS011;15455;53.376;-6.262;2023-06-10T12:01:11;19.63;;;8.13;;
28166;SDS011;15455;53.376;-6.262;2023-06-10T12:04:14;16.98;;;8.02;;
28166;SDS011;15455;53.376;-6.262;2023-06-10T12:07:04;26.87;;;9.33;;
28166;SDS011;15455;53.376;-6.262;2023-06-10T12:09:58;21.45;;;8.73;;
28166;SDS011;15455;53.376;-6.262;2023-06-10T12:12:56;18.23;;;8.27;;
28166;SDS011;15455;53.376;-6.262;2023-06-10T12:15:41;18.77;;;8.50;;
28166;SDS011;15455;53.376;-6.262;2023-06-10T12:18:27;15.82;;;8.50;;
28166;SDS011;15455;53.376;-6.262;2023-06-10T12:21:19;19.65;;;8.60;;
28166;SDS011;15455;53.376;-6.262;2023-06-10T12:24:09;18.35;;;8.70;;
28166;SDS011;15455;53.376;-6.262;2023-06-10T12:26:56;16.80;;;9.32;;
28166;SDS011;15455;53.376;-6.262;2023-06-10T12:29:50;17.17;;;8.50;;
28166;SDS011;15455;53.376;-6.262;2023-06-10T12:35:31;16.02;;;8.68;;
28166;SDS011;15455;53.376;-6.262;2023-06-10T12:38:23;21.15;;;9.18;;
28166;SDS011;15455;53.376;-6.262;2023-06-10T12:41:12;19.65;;;9.40;;
28166;SDS011;15455;53.376;-6.262;2023-06-10T12:43:59;16.48;;;8.13;;
28166;SDS011;15455;53.376;-6.262;2023-06-10T12:46:44;16.73;;;8.95;;
28166;SDS011;15455;53.376;-6.262;2023-06-10T12:49:29;20.70;;;8.95;;
28166;SDS011;15455;53.376;-6.262;2023-06-10T12:52:15;20.33;;;8.32;;
28166;SDS011;15455;53.376;-6.262;2023-06-10T12:55:00;17.95;;;9.05;;
28166;SDS011;15455;53.376;-6.262;2023-06-10T12:57:49;19.30;;;8.80;;
28166;SDS011;15455;53.376;-6.262;2023-06-10T13:00:35;21.55;;;8.70;;
28166;SDS011;15455;53.376;-6.262;2023-06-10T13:03:21;21.27;;;9.25;;
28166;SDS011;15455;53.376;-6.262;2023-06-10T13:06:06;17.35;;;8.20;;
28166;SDS011;15455;53.376;-6.262;2023-06-10T13:08:52;19.13;;;8.65;;
28166;SDS011;15455;53.376;-6.262;2023-06-10T13:11:38;23.50;;;8.45;;
28166;SDS011;15455;53.376;-6.262;2023-06-10T13:14:24;15.23;;;7.95;;
28166;SDS011;15455;53.376;-6.262;2023-06-10T13:17:09;17.00;;;8.80;;
28166;SDS011;15455;53.376;-6.262;2023-06-10T13:19:55;16.90;;;7.85;;
28166;SDS011;15455;53.376;-6.262;2023-06-10T13:22:40;19.90;;;7.97;;
28166;SDS011;15455;53.376;-6.262;2023-06-10T13:25:26;17.67;;;7.82;;
28166;SDS011;15455;53.376;-6.262;2023-06-10T13:28:11;18.98;;;7.85;;
28166;SDS011;15455;53.376;-6.262;2023-06-10T13:30:56;22.33;;;7.78;;
28166;SDS011;15455;53.376;-6.262;2023-06-10T13:33:42;22.52;;;8.55;;
28166;SDS011;15455;53.376;-6.262;2023-06-10T13:36:28;20.38;;;8.80;;
28166;SDS011;15455;53.376;-6.262;2023-06-10T13:39:14;17.65;;;9.13;;
28166;SDS011;15455;53.376;-6.262;2023-06-10T13:42:00;20.05;;;8.45;;
28166;SDS011;15455;53.376;-6.262;2023-06-10T13:44:49;17.45;;;8.85;;
28166;SDS011;15455;53.376;-6.262;2023-06-10T13:47:34;17.77;;;7.57;;
28166;SDS011;15455;53.376;-6.262;2023-06-10T13:50:19;15.90;;;8.25;;
28166;SDS011;15455;53.376;-6.262;2023-06-10T13:53:05;17.48;;;7.80;;
28166;SDS011;15455;53.376;-6.262;2023-06-10T13:55:50;20.65;;;8.80;;
28166;SDS011;15455;53.376;-6.262;2023-06-10T13:58:36;15.27;;;7.88;;
28166;SDS011;15455;53.376;-6.262;2023-06-10T14:01:24;15.95;;;7.82;;
28166;SDS011;15455;53.376;-6.262;2023-06-10T14:04:10;17.42;;;8.32;;
28166;SDS011;15455;53.376;-6.262;2023-06-10T14:06:55;22.00;;;7.68;;
28166;SDS011;15455;53.376;-6.262;2023-06-10T14:09:42;16.25;;;8.40;;
28166;SDS011;15455;53.376;-6.262;2023-06-10T14:12:28;17.08;;;7.45;;
28166;SDS011;15455;53.376;-6.262;2023-06-10T14:15:14;18.73;;;8.10;;
28166;SDS011;15455;53.376;-6.262;2023-06-10T14:18:00;17.38;;;7.65;;
28166;SDS011;15455;53.376;-6.262;2023-06-10T14:20:46;20.23;;;9.13;;
28166;SDS011;15455;53.376;-6.262;2023-06-10T14:23:31;12.43;;;7.22;;
28166;SDS011;15455;53.376;-6.262;2023-06-10T14:26:17;12.05;;;7.13;;
28166;SDS011;15455;53.376;-6.262;2023-06-10T14:29:03;17.77;;;7.43;;
28166;SDS011;15455;53.376;-6.262;2023-06-10T14:31:48;12.18;;;6.28;;
28166;SDS011;15455;53.376;-6.262;2023-06-10T14:34:34;15.73;;;6.40;;
28166;SDS011;15455;53.376;-6.262;2023-06-10T14:37:20;14.50;;;7.53;;
28166;SDS011;15455;53.376;-6.262;2023-06-10T14:40:05;16.20;;;7.07;;
28166;SDS011;15455;53.376;-6.262;2023-06-10T14:42:51;19.30;;;7.82;;
28166;SDS011;15455;53.376;-6.262;2023-06-10T14:45:37;16.85;;;7.28;;
28166;SDS011;15455;53.376;-6.262;2023-06-10T14:48:23;16.20;;;7.82;;
28166;SDS011;15455;53.376;-6.262;2023-06-10T14:51:08;17.73;;;8.02;;
28166;SDS011;15455;53.376;-6.262;2023-06-10T14:53:54;18.55;;;8.35;;
28166;SDS011;15455;53.376;-6.262;2023-06-10T14:56:39;23.13;;;9.88;;
28166;SDS011;15455;53.376;-6.262;2023-06-10T14:59:25;19.08;;;9.13;;
28166;SDS011;15455;53.376;-6.262;2023-06-10T15:02:10;17.23;;;9.30;;
28166;SDS011;15455;53.376;-6.262;2023-06-10T15:04:55;15.93;;;8.27;;
28166;SDS011;15455;53.376;-6.262;2023-06-10T15:07:41;18.48;;;9.65;;
28166;SDS011;15455;53.376;-6.262;2023-06-10T15:10:27;25.38;;;9.43;;
28166;SDS011;15455;53.376;-6.262;2023-06-10T15:13:12;18.85;;;9.57;;
28166;SDS011;15455;53.376;-6.262;2023-06-10T15:15:57;18.80;;;10.07;;
28166;SDS011;15455;53.376;-6.262;2023-06-10T15:18:47;21.98;;;9.93;;
28166;SDS011;15455;53.376;-6.262;2023-06-10T15:21:32;17.08;;;9.32;;
28166;SDS011;15455;53.376;-6.262;2023-06-10T15:24:18;16.15;;;8.98;;
28166;SDS011;15455;53.376;-6.262;2023-06-10T15:27:04;18.88;;;9.93;;
28166;SDS011;15455;53.376;-6.262;2023-06-10T15:29:50;24.45;;;10.55;;
28166;SDS011;15455;53.376;-6.262;2023-06-10T15:32:36;15.32;;;9.00;;
28166;SDS011;15455;53.376;-6.262;2023-06-10T15:35:21;19.45;;;10.25;;
28166;SDS011;15455;53.376;-6.262;2023-06-10T15:38:07;23.55;;;10.93;;
28166;SDS011;15455;53.376;-6.262;2023-06-10T15:40:52;22.50;;;11.02;;
28166;SDS011;15455;53.376;-6.262;2023-06-10T15:43:39;24.30;;;12.18;;
28166;SDS011;15455;53.376;-6.262;2023-06-10T15:46:26;25.10;;;11.25;;
28166;SDS011;15455;53.376;-6.262;2023-06-10T15:49:15;18.17;;;11.18;;
28166;SDS011;15455;53.376;-6.262;2023-06-10T15:52:01;20.50;;;9.98;;
28166;SDS011;15455;53.376;-6.262;2023-06-10T15:54:46;20.13;;;10.77;;
28166;SDS011;15455;53.376;-6.262;2023-06-10T15:57:32;19.65;;;11.30;;
28166;SDS011;15455;53.376;-6.262;2023-06-10T16:00:18;20.40;;;10.90;;
28166;SDS011;15455;53.376;-6.262;2023-06-10T16:03:04;21.65;;;11.80;;
28166;SDS011;15455;53.376;-6.262;2023-06-10T16:05:49;18.60;;;11.10;;
28166;SDS011;15455;53.376;-6.262;2023-06-10T16:08:35;22.55;;;10.80;;
28166;SDS011;15455;53.376;-6.262;2023-06-10T16:11:20;23.02;;;10.98;;
28166;SDS011;15455;53.376;-6.262;2023-06-10T16:14:06;23.15;;;12.23;;
28166;SDS011;15455;53.376;-6.262;2023-06-10T16:16:51;21.42;;;12.15;;
28166;SDS011;15455;53.376;-6.262;2023-06-10T16:19:37;19.65;;;10.90;;
28166;SDS011;15455;53.376;-6.262;2023-06-10T16:22:24;23.23;;;11.35;;
28166;SDS011;15455;53.376;-6.262;2023-06-10T16:25:11;25.83;;;11.30;;
28166;SDS011;15455;53.376;-6.262;2023-06-10T16:27:57;20.77;;;11.60;;
28166;SDS011;15455;53.376;-6.262;2023-06-10T16:30:42;18.00;;;10.82;;
28166;SDS011;15455;53.376;-6.262;2023-06-10T16:33:28;18.60;;;11.50;;
28166;SDS011;15455;53.376;-6.262;2023-06-10T16:36:14;21.70;;;10.65;;
28166;SDS011;15455;53.376;-6.262;2023-06-10T16:38:59;17.13;;;9.60;;
28166;SDS011;15455;53.376;-6.262;2023-06-10T16:41:45;20.90;;;11.07;;